This is the latest recevied weather packets stored in our database for station/object DL6JOE-10. If no packets are shown the sender has not sent any weather packets the latest 10 day(s).
| Time | Temp. | Humidity | Pressure | Rain* | Wind** | Luminosity | Snow |
|---|---|---|---|---|---|---|---|
| 1788301674 | 20° C | 45% | 968.7 hPa | - | - | - | - |
| 1788300774 | 20.56° C | 44% | 968.5 hPa | - | - | - | - |
| 1788299874 | 20.56° C | 43% | 968.5 hPa | - | - | - | - |
| 1788298074 | 21.11° C | 42% | 968.4 hPa | - | - | - | - |
| 1788297174 | 21.67° C | 42% | 968.4 hPa | - | - | - | - |
| 1788295374 | 21.67° C | 41% | 968.5 hPa | - | - | - | - |
| 1788294474 | 22.22° C | 41% | 968.4 hPa | - | - | - | - |
| 1788293574 | 22.22° C | 41% | 968.4 hPa | - | - | - | - |
| 1788292673 | 22.22° C | 40% | 968.3 hPa | - | - | - | - |
| 1788287273 | 25° C | 37% | 967.6 hPa | - | - | - | - |
| 1788286373 | 25.56° C | 36% | 967.4 hPa | - | - | - | - |
| 1788285473 | 26.11° C | 36% | 967.4 hPa | - | - | - | - |
| 1788284573 | 26.11° C | 35% | 967.2 hPa | - | - | - | - |
| 1788283673 | 26.67° C | 35% | 967.1 hPa | - | - | - | - |
| 1788282773 | 26.67° C | 35% | 967.2 hPa | - | - | - | - |
| 1788281872 | 27.22° C | 35% | 967.2 hPa | - | - | - | - |
| 1788280072 | 27.78° C | 33% | 967.2 hPa | - | - | - | - |
| 1788279172 | 27.78° C | 34% | 967.3 hPa | - | - | - | - |
| 1788278272 | 27.78° C | 33% | 967.2 hPa | - | - | - | - |
| 1788277372 | 27.78° C | 32% | 967.2 hPa | - | - | - | - |
| 1788276472 | 27.78° C | 33% | 967.1 hPa | - | - | - | - |
| 1788275572 | 27.78° C | 33% | 967.1 hPa | - | - | - | - |
| 1788274672 | 28.33° C | 33% | 967.2 hPa | - | - | - | - |
| 1788271971 | 28.33° C | 33% | 967.2 hPa | - | - | - | - |
| 1788271071 | 28.33° C | 34% | 967.3 hPa | - | - | - | - |
* Rain since midnight (hover to see other rain measurements)
** Current wind speed in m/s (hover to see current wind gust speed)